Airport View

Enter AWOS ICAO identifier for current METAR.

ex. KFNL

CZPC 041500Z AUTO 25005KT 9SM CLR 16/08 A3005 RMK SLP164 DENSITY ALT 4700FT

4 Jul 2020 15:41

Other Area AWOS: CWRT - CWDK - CWFJ - CWSW

TAF CYQL 041146Z 0412/0424 21006KT P6SM SKC BECMG 0413/0415 23012KT RMK FCST BASED ON AUTO OBS. NXT FCST BY 041800Z